Pagrindinis puslapis
METAR-TAF:

METAR-TAF

Oro uostai :

La Palma, Ispanija

platuma: 28-37N, ilguma: 017-45W, Aukštis: 29 m

Dabartinis oras

Ataskaita buvo paskelbta 35 minutes, ne 18:00 UTC
Vėjas 13 kt iš Šiaurės
Temperatūra 18°C
Drėgmė 77%
Slėgis 1023 hPa
Matomumas 10 km arba daugiau
Mažai debesys ne aukštis 2000 ft
Išsisklaidę debesys ne aukštis 3500 ft

METAR: GCLA 291800Z 35013KT 9999 FEW020 SCT035 18/14 Q1023

Laikas: 18:35 (18:35 UTC)

Prognozė

Ataskaita buvo paskelbta 1 valandą ir 37 minutes, ne 16:58 UTC
Prognozė galioja nuo 29 metu 16 UTC su 01 metu 15 UTC
Vėjas 15 kt iš Šiaurės/Šiaurės Rytų
Matomumas 10 km arba daugiau
Su prošvaistėmis ne aukštis 3500 ft
Tikimybė 30% :
Laikinai
nuo 29 metu 20 UTC su 29 metu 25 UTC
Vėjas 15 kt iš Šiaurės/Šiaurės Rytų su gūsio iki 25 kt
Tikimybė 30% :
Laikinai
nuo 29 metu 17 UTC su 01 metu 09 UTC
Matomumas: 3000 m
Su prošvaistėmis ne aukštis 1400 ft
dulksna, lietus,

TAF: GCLA 291658Z 2916/0115 02015KT 9999 BKN035 TX19/0114Z TN17/0106Z PROB30 TEMPO 2920/2925 02015G25KT PROB30 TEMPO 2917/0109 3000 DZRA BKN014

Orai ataskaitas ir orų prognozės (METAR, TAF).

turimą stotys yra geltonos ir raudonos taškus žemėlapyje.

Perkelti pele per norėdami pamatyti stoties vardą.

Tada spustelėkite, norėdami matyti oro stebėjimo ir prognozės.

Norėdami pakeisti žemėlapį: spustelėkite ant žalios mygtukų su juodo kryžiaus žemyn,; žalią mygtuką su brūkšneliu, jei norite nutolinti; arba žalių rodyklių gretimoms žemėlapius.


METAR-TAF: